I Love This Boat — WDH2967 — position and weather

sailwx.info

Track history (hours):
 
Tides and Currents Weather Stations Pressure Air Temp Water Temp Dewpoint Dewpoint Depression Visibility Wind Speed Wind Dir Waves Ship Positions

I Love This Boat

Owner: 111075, LLC, St. Petersburg, FL. More information available from US FCC via Universal Licensing System and Coast Guard Vessel Documentation Center.

Last reported at 2017-Nov-19 19:48 UTC. Time now 2017-Nov-21 20:55 UTC.
Position N 25°55' W 079°47'.

Length 45 m; draft 2.3 m.

Type: Pleasure craft. MMSI: 367602990.

Date/timePositionNaut miles runAvg speedWind from/ knotsBaromVisibWave heightAir tempDewpointWater temp
2017-Nov-19 19:48N 25°55' W 079°47'311.2
2017-Nov-19 19:30N 25°56' W 079°50'611.1
2017-Nov-19 19:00N 25°58' W 079°56'5 9.6
2017-Nov-19 18:30N 25°59' W 080°01'5 9.0
2017-Nov-19 18:00N 25°56' W 080°06'4 8.4
2017-Nov-19 17:30N 25°52' W 080°06'4 8.6
2017-Nov-19 17:00N 25°48' W 080°07'3 5.4
2017-Nov-19 16:30N 25°46' W 080°09'2 4.0
2017-Nov-19 16:00N 25°46' W 080°11'2 4.6
2017-Nov-19 15:31N 25°46' W 080°09'0 0.2
2017-Nov-19 14:58N 25°46' W 080°08'0 0.0
2017-Nov-19 14:28N 25°46' W 080°08'0 0.0
2017-Nov-19 13:58N 25°46' W 080°08'0 0.0
2017-Nov-19 13:28N 25°46' W 080°08'0 0.0
2017-Nov-19 12:58N 25°46' W 080°08'0 0.0
2017-Nov-19 12:28N 25°46' W 080°08'0 0.0
2017-Nov-19 11:55N 25°46' W 080°08'0 0.0
2017-Nov-19 11:28N 25°46' W 080°08'0 0.0
2017-Nov-19 10:58N 25°46' W 080°08'0 0.0
2017-Nov-19 10:28N 25°46' W 080°08'0 0.0
2017-Nov-19 09:58N 25°46' W 080°08'0 0.0
2017-Nov-19 09:28N 25°46' W 080°08'0 0.0
2017-Nov-19 08:58N 25°46' W 080°08'0 0.0
2017-Nov-19 08:28N 25°46' W 080°08'0 0.0
2017-Nov-19 07:58N 25°46' W 080°08'0 0.0
2017-Nov-19 07:28N 25°46' W 080°08'0 0.0
2017-Nov-19 06:55N 25°46' W 080°08'0 0.0
2017-Nov-19 06:28N 25°46' W 080°08'0 0.0
2017-Nov-19 05:58N 25°46' W 080°08'0 0.0
2017-Nov-19 05:28N 25°46' W 080°08'0 0.0
2017-Nov-19 04:58N 25°46' W 080°08'0 0.0
2017-Nov-19 04:28N 25°46' W 080°08'0 0.0
2017-Nov-19 03:58N 25°46' W 080°08'0 0.0
2017-Nov-19 03:28N 25°46' W 080°08'0 0.0
2017-Nov-19 02:58N 25°46' W 080°08'0 0.0
2017-Nov-19 02:28N 25°46' W 080°08'0 0.0
2017-Nov-19 01:58N 25°46' W 080°08'0 0.0
2017-Nov-19 01:28N 25°46' W 080°08'0 0.0
2017-Nov-19 00:58N 25°46' W 080°08'0 0.0
2017-Nov-19 00:28N 25°46' W 080°08'0 0.0
2017-Nov-18 23:58N 25°46' W 080°08'0 0.0
2017-Nov-18 23:25N 25°46' W 080°08'0 0.0
2017-Nov-18 22:58N 25°46' W 080°08'0 0.0
2017-Nov-18 22:28N 25°46' W 080°08'0 0.0
2017-Nov-18 21:52N 25°46' W 080°08'0 0.0
2017-Nov-18 21:28N 25°46' W 080°08'0 0.0
2017-Nov-18 20:58N 25°46' W 080°08'0 0.0
2017-Nov-18 20:28N 25°46' W 080°08'0 0.0
2017-Nov-18 19:58N 25°46' W 080°08'0 0.0
2017-Nov-18 19:28N 25°46' W 080°08'0 0.0
2017-Nov-18 18:55N 25°46' W 080°08'0 0.0
2017-Nov-18 18:28N 25°46' W 080°08'0 0.0
2017-Nov-18 17:58N 25°46' W 080°08'0 0.0
2017-Nov-18 17:28N 25°46' W 080°08'0 0.0
2017-Nov-18 16:58N 25°46' W 080°08'0 0.0
2017-Nov-18 16:28N 25°46' W 080°08'0 0.0
2017-Nov-18 15:55N 25°46' W 080°08'0 0.0
2017-Nov-18 15:28N 25°46' W 080°08'0 0.0
2017-Nov-18 14:58N 25°46' W 080°08'0 0.0
2017-Nov-18 14:28N 25°46' W 080°08'0 0.0
2017-Nov-18 13:58N 25°46' W 080°08'0 0.0
2017-Nov-18 13:28N 25°46' W 080°08'0 0.0
2017-Nov-18 12:55N 25°46' W 080°08'0 0.0
2017-Nov-18 12:28N 25°46' W 080°08'0 0.0
2017-Nov-18 11:58N 25°46' W 080°08'0 0.0
2017-Nov-18 11:28N 25°46' W 080°08'0 0.0
2017-Nov-18 10:58N 25°46' W 080°08'0 0.0
2017-Nov-18 10:28N 25°46' W 080°08'0 0.0
2017-Nov-18 09:58N 25°46' W 080°08'0 0.0
2017-Nov-18 09:28N 25°46' W 080°08'0 0.0
2017-Nov-18 08:58N 25°46' W 080°08'0 0.0
2017-Nov-18 08:25N 25°46' W 080°08'0 0.0
2017-Nov-18 07:58N 25°46' W 080°08'0 0.0
2017-Nov-18 07:28N 25°46' W 080°08'0 0.0
2017-Nov-18 06:58N 25°46' W 080°08'0 0.0
2017-Nov-18 06:28N 25°46' W 080°08'0 0.0
2017-Nov-18 05:58N 25°46' W 080°08'0 0.0
2017-Nov-18 05:28N 25°46' W 080°08'0 0.0
2017-Nov-18 04:55N 25°46' W 080°08'0 0.0
2017-Nov-18 04:28N 25°46' W 080°08'0 0.0
2017-Nov-18 03:58N 25°46' W 080°08'0 0.0
2017-Nov-18 03:28N 25°46' W 080°08'0 0.0
2017-Nov-18 02:58N 25°46' W 080°08'0 0.0
2017-Nov-18 02:28N 25°46' W 080°08'0 0.0
2017-Nov-18 01:58N 25°46' W 080°08'0 0.0
2017-Nov-18 01:28N 25°46' W 080°08'0 0.0
2017-Nov-18 00:58N 25°46' W 080°08'0 0.0
2017-Nov-18 00:28N 25°46' W 080°08'0 0.0
2017-Nov-17 23:58N 25°46' W 080°08'0 0.0
2017-Nov-17 23:28N 25°46' W 080°08'0 0.0
2017-Nov-17 22:55N 25°46' W 080°08'0 0.0
2017-Nov-17 22:28N 25°46' W 080°08'0 0.0
2017-Nov-17 21:58N 25°46' W 080°08'0 0.0
2017-Nov-17 21:28N 25°46' W 080°08'0 0.2
2017-Nov-17 21:00N 25°46' W 080°09'4 7.2
2017-Nov-17 20:30N 25°49' W 080°06'714.7
2017-Nov-17 20:00N 25°56' W 080°06'714.1
2017-Nov-17 19:30N 26°03' W 080°05'3 6.5
2017-Nov-17 19:00N 26°06' W 080°07'2 2.8
2017-Nov-17 18:25N 26°08' W 080°07'0 0.0
2017-Nov-17 17:43N 26°08' W 080°07'0 0.0
2017-Nov-17 17:28N 26°08' W 080°07'0 0.0
2017-Nov-17 16:52N 26°08' W 080°07'0 0.0
2017-Nov-17 16:28N 26°08' W 080°07'0 0.0
2017-Nov-17 15:58N 26°08' W 080°07'0 0.0
2017-Nov-17 15:28N 26°08' W 080°07'0 0.0
2017-Nov-17 14:58N 26°08' W 080°07'0 0.0
2017-Nov-17 14:28N 26°08' W 080°07'0 0.0
2017-Nov-17 13:58N 26°08' W 080°07'0 0.0
2017-Nov-17 13:28N 26°08' W 080°07'0 0.0
2017-Nov-17 12:58N 26°08' W 080°07'0 0.0
2017-Nov-17 12:28N 26°08' W 080°07'0 0.0
2017-Nov-17 11:49N 26°08' W 080°07'0 0.0
2017-Nov-17 11:19N 26°08' W 080°07'0 0.0
2017-Nov-17 10:34N 26°08' W 080°07'0 0.0
2017-Nov-17 10:19N 26°08' W 080°07'0 0.0
2017-Nov-17 09:46N 26°08' W 080°07'0 0.0
2017-Nov-17 09:19N 26°08' W 080°07'0 0.0
2017-Nov-17 08:52N 26°08' W 080°07'0 0.0
2017-Nov-17 08:22N 26°08' W 080°07'0 0.0
2017-Nov-17 07:52N 26°08' W 080°07'0 0.0
2017-Nov-17 07:22N 26°08' W 080°07'0 0.0
2017-Nov-17 06:49N 26°08' W 080°07'0 0.0
2017-Nov-17 06:19N 26°08' W 080°07'0 0.0
2017-Nov-17 05:55N 26°08' W 080°07'0 0.0
2017-Nov-17 05:25N 26°08' W 080°07'0 0.0
2017-Nov-17 04:55N 26°08' W 080°07'0 0.0
2017-Nov-17 04:25N 26°08' W 080°07'0 0.0
2017-Nov-17 03:55N 26°08' W 080°07'0 0.0
2017-Nov-17 03:28N 26°08' W 080°07'0 0.0
2017-Nov-17 02:58N 26°08' W 080°07'0 0.0
2017-Nov-17 02:25N 26°08' W 080°07'0 0.0
2017-Nov-17 01:58N 26°08' W 080°07'0 0.0
2017-Nov-17 01:25N 26°08' W 080°07'0 0.0
2017-Nov-17 00:58N 26°08' W 080°07'0 0.0
2017-Nov-17 00:28N 26°08' W 080°07'0 0.0
2017-Nov-16 23:58N 26°08' W 080°07'0 0.0
2017-Nov-16 23:28N 26°08' W 080°07'0 0.0
2017-Nov-16 22:58N 26°08' W 080°07'0 0.0
2017-Nov-16 22:28N 26°08' W 080°07'0 0.0
2017-Nov-16 21:58N 26°08' W 080°07'0 0.0
2017-Nov-16 21:28N 26°08' W 080°07'0 0.0
2017-Nov-16 20:49N 26°08' W 080°07'0 0.0
2017-Nov-16 20:16N 26°08' W 080°07'0 0.0
2017-Nov-16 19:49N 26°08' W 080°07'0 0.0
2017-Nov-16 19:16N 26°08' W 080°07'0 0.0
2017-Nov-16 18:52N 26°08' W 080°07'0 0.0
2017-Nov-16 18:22N 26°08' W 080°07'0 0.0
2017-Nov-16 17:52N 26°08' W 080°07'0 0.0
2017-Nov-16 17:19N 26°08' W 080°07'0 0.0
2017-Nov-16 16:52N 26°08' W 080°07'0 0.0
2017-Nov-16 16:25N 26°08' W 080°07'0 0.0
2017-Nov-16 15:55N 26°08' W 080°07'0 0.0
2017-Nov-16 15:25N 26°08' W 080°07'0 0.0
2017-Nov-16 14:52N 26°08' W 080°07'0 0.0
2017-Nov-16 14:25N 26°08' W 080°07'0 0.0
2017-Nov-16 13:55N 26°08' W 080°07'0 0.0
2017-Nov-16 13:28N 26°08' W 080°07'0 0.0
2017-Nov-16 12:55N 26°08' W 080°07'0 0.0
2017-Nov-16 12:28N 26°08' W 080°07'0 0.0
2017-Nov-16 11:58N 26°08' W 080°07'0 0.0
2017-Nov-16 11:28N 26°08' W 080°07'0 0.0
2017-Nov-16 10:58N 26°08' W 080°07'0 0.0
2017-Nov-16 10:28N 26°08' W 080°07'0 0.0
2017-Nov-16 09:58N 26°08' W 080°07'0 0.0
2017-Nov-16 09:16N 26°08' W 080°07'0 0.0
2017-Nov-16 08:58N 26°08' W 080°07'0 0.0
2017-Nov-16 08:28N 26°08' W 080°07'0 0.0
2017-Nov-16 07:58N 26°08' W 080°07'0 0.0
2017-Nov-16 07:19N 26°08' W 080°07'0 0.0
2017-Nov-16 06:58N 26°08' W 080°07'0 0.0
2017-Nov-16 06:19N 26°08' W 080°07'0 0.0
2017-Nov-16 05:49N 26°08' W 080°07'0 0.0
2017-Nov-16 05:07N 26°08' W 080°07'0 0.0
2017-Nov-16 04:52N 26°08' W 080°07'0 0.0
2017-Nov-16 04:22N 26°08' W 080°07'0 0.0
2017-Nov-16 03:52N 26°08' W 080°07'0 0.0
2017-Nov-16 03:22N 26°08' W 080°07'0 0.0
2017-Nov-16 02:49N 26°08' W 080°07'0 0.0
2017-Nov-16 02:10N 26°08' W 080°07'0 0.0
2017-Nov-16 01:55N 26°08' W 080°07'0 0.0
2017-Nov-16 01:25N 26°08' W 080°07'0 0.0
2017-Nov-16 00:55N 26°08' W 080°07'0 0.0
2017-Nov-16 00:25N 26°08' W 080°07'0 0.0
2017-Nov-15 23:52N 26°08' W 080°07'0 0.0
2017-Nov-15 23:28N 26°08' W 080°07'0 0.0
2017-Nov-15 22:58N 26°08' W 080°07'0 0.0
2017-Nov-15 22:28N 26°08' W 080°07'0 0.0
2017-Nov-15 21:58N 26°08' W 080°07'0 0.0
2017-Nov-15 21:28N 26°08' W 080°07'0 0.0
2017-Nov-15 20:55N 26°08' W 080°07'0 0.0
2017-Nov-15 20:28N 26°08' W 080°07'0 0.0
2017-Nov-15 19:58N 26°08' W 080°07'0 0.0
2017-Nov-15 19:25N 26°08' W 080°07'0 0.0
2017-Nov-15 18:58N 26°08' W 080°07'0 0.0
2017-Nov-15 18:28N 26°08' W 080°07'0 0.0
2017-Nov-15 17:28N 26°08' W 080°07'0 0.0
2017-Nov-15 16:58N 26°08' W 080°07'0 0.0
2017-Nov-15 16:19N 26°08' W 080°07'0 0.0
2017-Nov-15 15:49N 26°08' W 080°07'0 0.0
2017-Nov-15 15:04N 26°08' W 080°07'0 0.0
2017-Nov-15 14:49N 26°08' W 080°07'0 0.0
2017-Nov-15 14:22N 26°08' W 080°07'0 0.0
2017-Nov-15 13:49N 26°08' W 080°07'0 0.0
2017-Nov-15 13:22N 26°08' W 080°07'0 0.0
2017-Nov-15 12:52N 26°08' W 080°07'0 0.0
2017-Nov-15 12:19N 26°08' W 080°07'0 0.0
2017-Nov-15 11:55N 26°08' W 080°07'0 0.0
2017-Nov-15 11:25N 26°08' W 080°07'0 0.0
2017-Nov-15 10:55N 26°08' W 080°07'0 0.0
2017-Nov-15 10:25N 26°08' W 080°07'0 0.0
2017-Nov-15 09:52N 26°08' W 080°07'0 0.0
2017-Nov-15 09:25N 26°08' W 080°07'0 0.0
2017-Nov-15 08:58N 26°08' W 080°07'0 0.0
2017-Nov-15 08:28N 26°08' W 080°07'0 0.0
2017-Nov-15 07:58N 26°08' W 080°07'0 0.0
2017-Nov-15 07:28N 26°08' W 080°07'0 0.0
2017-Nov-15 06:55N 26°08' W 080°07'0 0.0
2017-Nov-15 06:25N 26°08' W 080°07'0 0.0
2017-Nov-15 05:58N 26°08' W 080°07'0 0.0
2017-Nov-15 05:28N 26°08' W 080°07'0 0.0
2017-Nov-15 04:58N 26°08' W 080°07'0 0.0
2017-Nov-15 04:28N 26°08' W 080°07'0 0.0
2017-Nov-15 03:58N 26°08' W 080°07'0 0.0
2017-Nov-15 03:28N 26°08' W 080°07'0 0.0
2017-Nov-15 02:46N 26°08' W 080°07'0 0.0
2017-Nov-15 02:28N 26°08' W 080°07'0 0.0
2017-Nov-15 01:49N 26°08' W 080°07'0 0.0
2017-Nov-15 01:19N 26°08' W 080°07'0 0.0
2017-Nov-15 00:49N 26°08' W 080°07'0 0.0
2017-Nov-15 00:22N 26°08' W 080°07'0 0.0
2017-Nov-14 23:52N 26°08' W 080°07'0 0.0
2017-Nov-14 23:22N 26°08' W 080°07'0 0.0
2017-Nov-14 22:52N 26°08' W 080°07'0 0.0
2017-Nov-14 22:19N 26°08' W 080°07'0 0.0
2017-Nov-14 21:52N 26°08' W 080°07'0 0.0
2017-Nov-14 21:25N 26°08' W 080°07'0 0.0
2017-Nov-14 20:55N 26°08' W 080°07'0 0.0
2017-Nov-14 20:25N 26°08' W 080°07'0 0.0
2017-Nov-14 19:55N 26°08' W 080°07'0 0.0
2017-Nov-14 19:25N 26°08' W 080°07'0 0.0
2017-Nov-14 18:58N 26°08' W 080°07'0 0.0
2017-Nov-14 18:28N 26°08' W 080°07'0 0.0
2017-Nov-14 17:58N 26°08' W 080°07'0 0.0
2017-Nov-14 17:25N 26°08' W 080°07'0 0.0
2017-Nov-14 16:58N 26°08' W 080°07'0 0.0
2017-Nov-14 16:28N 26°08' W 080°07'0 0.0
2017-Nov-14 15:58N 26°08' W 080°07'0 0.0
2017-Nov-14 15:28N 26°08' W 080°07'0 0.0
2017-Nov-14 14:58N 26°08' W 080°07'0 0.0
2017-Nov-14 14:28N 26°08' W 080°07'0 0.0
2017-Nov-14 13:58N 26°08' W 080°07'0 0.0
2017-Nov-14 13:28N 26°08' W 080°07'0 0.0
2017-Nov-14 12:58N 26°08' W 080°07'0 0.0
2017-Nov-14 12:28N 26°08' W 080°07'0 0.0
2017-Nov-14 11:49N 26°08' W 080°07'0 0.0
2017-Nov-14 11:19N 26°08' W 080°07'0 0.0
2017-Nov-14 10:49N 26°08' W 080°07'0 0.0
2017-Nov-14 10:22N 26°08' W 080°07'0 0.0
2017-Nov-14 09:52N 26°08' W 080°07'0 0.0
2017-Nov-14 09:22N 26°08' W 080°07'0 0.0
2017-Nov-14 08:52N 26°08' W 080°07'0 0.0
2017-Nov-14 08:22N 26°08' W 080°07'0 0.0
2017-Nov-14 07:52N 26°08' W 080°07'0 0.0
2017-Nov-14 07:25N 26°08' W 080°07'0 0.0
2017-Nov-14 06:55N 26°08' W 080°07'0 0.0
2017-Nov-14 06:25N 26°08' W 080°07'0 0.0
2017-Nov-14 05:55N 26°08' W 080°07'0 0.0
2017-Nov-14 05:25N 26°08' W 080°07'0 0.0
2017-Nov-14 04:55N 26°08' W 080°07'0 0.0
2017-Nov-14 04:28N 26°08' W 080°07'0 0.0
2017-Nov-14 03:55N 26°08' W 080°07'0 0.0
2017-Nov-14 03:25N 26°08' W 080°07'0 0.0
2017-Nov-14 02:55N 26°08' W 080°07'0 0.0
2017-Nov-14 02:28N 26°08' W 080°07'0 0.0
2017-Nov-14 01:58N 26°08' W 080°07'0 0.0
2017-Nov-14 01:28N 26°08' W 080°07'0 0.0
2017-Nov-14 00:55N 26°08' W 080°07'0 0.0
2017-Nov-14 00:28N 26°08' W 080°07'0 0.0
2017-Nov-13 23:58N 26°08' W 080°07'0 0.0
2017-Nov-13 23:28N 26°08' W 080°07'0 0.0
2017-Nov-13 22:58N 26°08' W 080°07'0 0.0
2017-Nov-13 22:19N 26°08' W 080°07'0 0.0
2017-Nov-13 21:49N 26°08' W 080°07'0 0.0
2017-Nov-13 01:55N 26°08' W 080°07'0 0.0
2017-Nov-13 01:25N 26°08' W 080°07'0 0.0
2017-Nov-13 00:55N 26°08' W 080°07'0 0.0
2017-Nov-13 00:25N 26°08' W 080°07'0 0.0
2017-Nov-12 23:58N 26°08' W 080°07'0 0.0
2017-Nov-12 23:28N 26°08' W 080°07'0 0.0
2017-Nov-12 22:58N 26°08' W 080°07'0 0.0
2017-Nov-12 22:25N 26°08' W 080°07'0 0.0
2017-Nov-12 21:58N 26°08' W 080°07'0 0.0
2017-Nov-12 21:25N 26°08' W 080°07'0 0.0
2017-Nov-12 20:58N 26°08' W 080°07'0 0.0
2017-Nov-12 20:28N 26°08' W 080°07'0 0.0
2017-Nov-12 19:58N 26°08' W 080°07'0 0.0
2017-Nov-12 19:28N 26°08' W 080°07'0 0.0
2017-Nov-12 18:58N 26°08' W 080°07'0 0.0
2017-Nov-12 18:19N 26°08' W 080°07'0 0.0
2017-Nov-12 17:58N 26°08' W 080°07'0 0.0
2017-Nov-12 17:28N 26°08' W 080°07'0 0.0
2017-Nov-12 16:49N 26°08' W 080°07'0 0.0
2017-Nov-12 16:19N 26°08' W 080°07'0 0.0
2017-Nov-12 15:52N 26°08' W 080°07'0 0.0
2017-Nov-12 15:22N 26°08' W 080°07'0 0.0
2017-Nov-12 14:49N 26°08' W 080°07'0 0.8
2017-Nov-12 14:30N 26°08' W 080°07'1 2.8
2017-Nov-12 14:00N 26°06' W 080°07'5 9.8
2017-Nov-12 13:30N 26°02' W 080°06'611.9
2017-Nov-12 13:01N 25°56' W 080°06'611.8
2017-Nov-12 12:30N 25°50' W 080°06'5 9.1
2017-Nov-12 12:01N 25°46' W 080°08'1 1.4
2017-Nov-12 11:28N 25°45' W 080°08'0 0.0
2017-Nov-12 10:55N 25°45' W 080°08'0 0.0
2017-Nov-12 10:28N 25°45' W 080°08'0 0.0
2017-Nov-12 09:58N 25°45' W 080°08'0 0.0
2017-Nov-12 09:28N 25°45' W 080°08'0 0.0
2017-Nov-12 08:58N 25°45' W 080°08'0 0.0
2017-Nov-12 08:28N 25°45' W 080°08'0 0.0
2017-Nov-12 07:58N 25°45' W 080°08'0 0.0
2017-Nov-12 07:28N 25°45' W 080°08'0 0.0
2017-Nov-12 06:55N 25°45' W 080°08'0 0.0
2017-Nov-12 06:28N 25°45' W 080°08'0 0.0
2017-Nov-12 05:49N 25°45' W 080°08'0 0.0
2017-Nov-12 05:28N 25°45' W 080°08'0 0.0
2017-Nov-12 04:58N 25°45' W 080°08'0 0.0
2017-Nov-12 04:28N 25°45' W 080°08'0 0.0
2017-Nov-12 03:55N 25°45' W 080°08'0 0.0
2017-Nov-12 03:28N 25°45' W 080°08'0 0.0
2017-Nov-12 02:55N 25°45' W 080°08'0 0.0
2017-Nov-12 02:25N 25°45' W 080°08'0 0.0
2017-Nov-12 01:58N 25°45' W 080°08'0 0.0
2017-Nov-12 01:28N 25°45' W 080°08'0 0.0
2017-Nov-12 00:58N 25°45' W 080°08'0 0.0
2017-Nov-12 00:28N 25°45' W 080°08'0 0.0
2017-Nov-11 23:55N 25°45' W 080°08'0 0.0
2017-Nov-11 23:28N 25°45' W 080°08'0 0.0
2017-Nov-11 22:58N 25°45' W 080°08'0 0.0
2017-Nov-10 17:13N 25°45' W 080°08'0 0.0
2017-Nov-10 16:58N 25°45' W 080°08'0 0.0
2017-Nov-10 16:28N 25°45' W 080°08'0 0.0
2017-Nov-10 15:58N 25°45' W 080°08'0 0.0
2017-Nov-10 15:28N 25°45' W 080°08'0 0.0
2017-Nov-10 14:58N 25°45' W 080°08'0 0.0
2017-Nov-10 14:28N 25°45' W 080°08'0 0.0
2017-Nov-10 13:58N 25°45' W 080°08'0 0.0
2017-Nov-10 13:28N 25°45' W 080°08'0 0.0
2017-Nov-10 12:58N 25°45' W 080°08'0 0.0
2017-Nov-10 12:28N 25°45' W 080°08'0 0.0
2017-Nov-10 11:58N 25°45' W 080°08'0 0.0
2017-Nov-10 11:28N 25°45' W 080°08'0 0.0
2017-Nov-10 10:58N 25°45' W 080°08'0 0.0
2017-Nov-10 10:28N 25°45' W 080°08'0 0.0
2017-Nov-10 09:58N 25°45' W 080°08'0 0.0
2017-Nov-10 09:28N 25°45' W 080°08'0 0.0
2017-Nov-10 08:58N 25°45' W 080°08'0 0.0
2017-Nov-10 08:28N 25°45' W 080°08'0 0.0
2017-Nov-10 07:58N 25°45' W 080°08'0 0.0
2017-Nov-10 07:28N 25°45' W 080°08'0 0.0
2017-Nov-10 06:58N 25°45' W 080°08'0 0.0
2017-Nov-10 06:28N 25°45' W 080°08'0 0.0
2017-Nov-10 05:58N 25°45' W 080°08'0 0.0
2017-Nov-10 05:22N 25°45' W 080°08'0 0.0
2017-Nov-10 04:58N 25°45' W 080°08'0 0.0
2017-Nov-10 04:28N 25°45' W 080°08'0 0.0
2017-Nov-10 03:58N 25°45' W 080°08'0 0.0
2017-Nov-10 03:25N 25°45' W 080°08'0 0.0
2017-Nov-10 02:52N 25°45' W 080°08'0 0.0
2017-Nov-10 02:28N 25°45' W 080°08'0 0.0
2017-Nov-10 01:55N 25°45' W 080°08'0 0.0
2017-Nov-10 01:28N 25°45' W 080°08'0 0.0
2017-Nov-10 00:58N 25°45' W 080°08'0 0.0
2017-Nov-10 00:28N 25°45' W 080°08'0 0.0
2017-Nov-09 23:58N 25°45' W 080°08'0 0.0
2017-Nov-09 23:28N 25°45' W 080°08'0 0.0
2017-Nov-09 22:55N 25°45' W 080°08'0 0.0
2017-Nov-09 22:28N 25°45' W 080°08'0 0.0
2017-Nov-09 21:58N 25°45' W 080°08'0 0.0
2017-Nov-09 21:28N 25°45' W 080°08'0 0.0
2017-Nov-09 20:58N 25°45' W 080°08'0 0.0
2017-Nov-09 20:28N 25°45' W 080°08'0 1.0
2017-Nov-09 20:01N 25°46' W 080°09'  
Track history (hours):
 
Tides and Currents Weather Stations Pressure Air Temp Water Temp Dewpoint Dewpoint Depression Visibility Wind Speed Wind Dir Waves Ship Positions

I Love This Boat

Owner: 111075, LLC, St. Petersburg, FL. More information available from US FCC via Universal Licensing System and Coast Guard Vessel Documentation Center.

Last reported at 2017-Nov-19 19:48 UTC. Time now 2017-Nov-21 20:55 UTC.
Position N 25°55' W 079°47'.

Length 45 m; draft 2.3 m.

Type: Pleasure craft. MMSI: 367602990.

Date/timePositionNaut miles runAvg speedWind from/ knotsBaromVisibWave heightAir tempDewpointWater temp
2017-Nov-19 19:48N 25°55' W 079°47'311.2
2017-Nov-19 19:30N 25°56' W 079°50'611.1
2017-Nov-19 19:00N 25°58' W 079°56'5 9.6
2017-Nov-19 18:30N 25°59' W 080°01'5 9.0
2017-Nov-19 18:00N 25°56' W 080°06'4 8.4
2017-Nov-19 17:30N 25°52' W 080°06'4 8.6
2017-Nov-19 17:00N 25°48' W 080°07'3 5.4
2017-Nov-19 16:30N 25°46' W 080°09'2 4.0
2017-Nov-19 16:00N 25°46' W 080°11'2 4.6
2017-Nov-19 15:31N 25°46' W 080°09'0 0.2
2017-Nov-19 14:58N 25°46' W 080°08'0 0.0
2017-Nov-19 14:28N 25°46' W 080°08'0 0.0
2017-Nov-19 13:58N 25°46' W 080°08'0 0.0
2017-Nov-19 13:28N 25°46' W 080°08'0 0.0
2017-Nov-19 12:58N 25°46' W 080°08'0 0.0
2017-Nov-19 12:28N 25°46' W 080°08'0 0.0
2017-Nov-19 11:55N 25°46' W 080°08'0 0.0
2017-Nov-19 11:28N 25°46' W 080°08'0 0.0
2017-Nov-19 10:58N 25°46' W 080°08'0 0.0
2017-Nov-19 10:28N 25°46' W 080°08'0 0.0
2017-Nov-19 09:58N 25°46' W 080°08'0 0.0
2017-Nov-19 09:28N 25°46' W 080°08'0 0.0
2017-Nov-19 08:58N 25°46' W 080°08'0 0.0
2017-Nov-19 08:28N 25°46' W 080°08'0 0.0
2017-Nov-19 07:58N 25°46' W 080°08'0 0.0
2017-Nov-19 07:28N 25°46' W 080°08'0 0.0
2017-Nov-19 06:55N 25°46' W 080°08'0 0.0
2017-Nov-19 06:28N 25°46' W 080°08'0 0.0
2017-Nov-19 05:58N 25°46' W 080°08'0 0.0
2017-Nov-19 05:28N 25°46' W 080°08'0 0.0
2017-Nov-19 04:58N 25°46' W 080°08'0 0.0
2017-Nov-19 04:28N 25°46' W 080°08'0 0.0
2017-Nov-19 03:58N 25°46' W 080°08'0 0.0
2017-Nov-19 03:28N 25°46' W 080°08'0 0.0
2017-Nov-19 02:58N 25°46' W 080°08'0 0.0
2017-Nov-19 02:28N 25°46' W 080°08'0 0.0
2017-Nov-19 01:58N 25°46' W 080°08'0 0.0
2017-Nov-19 01:28N 25°46' W 080°08'0 0.0
2017-Nov-19 00:58N 25°46' W 080°08'0 0.0
2017-Nov-19 00:28N 25°46' W 080°08'0 0.0
2017-Nov-18 23:58N 25°46' W 080°08'0 0.0
2017-Nov-18 23:25N 25°46' W 080°08'0 0.0
2017-Nov-18 22:58N 25°46' W 080°08'0 0.0
2017-Nov-18 22:28N 25°46' W 080°08'0 0.0
2017-Nov-18 21:52N 25°46' W 080°08'0 0.0
2017-Nov-18 21:28N 25°46' W 080°08'0 0.0
2017-Nov-18 20:58N 25°46' W 080°08'0 0.0
2017-Nov-18 20:28N 25°46' W 080°08'0 0.0
2017-Nov-18 19:58N 25°46' W 080°08'0 0.0
2017-Nov-18 19:28N 25°46' W 080°08'0 0.0
2017-Nov-18 18:55N 25°46' W 080°08'0 0.0
2017-Nov-18 18:28N 25°46' W 080°08'0 0.0
2017-Nov-18 17:58N 25°46' W 080°08'0 0.0
2017-Nov-18 17:28N 25°46' W 080°08'0 0.0
2017-Nov-18 16:58N 25°46' W 080°08'0 0.0
2017-Nov-18 16:28N 25°46' W 080°08'0 0.0
2017-Nov-18 15:55N 25°46' W 080°08'0 0.0
2017-Nov-18 15:28N 25°46' W 080°08'0 0.0
2017-Nov-18 14:58N 25°46' W 080°08'0 0.0
2017-Nov-18 14:28N 25°46' W 080°08'0 0.0
2017-Nov-18 13:58N 25°46' W 080°08'0 0.0
2017-Nov-18 13:28N 25°46' W 080°08'0 0.0
2017-Nov-18 12:55N 25°46' W 080°08'0 0.0
2017-Nov-18 12:28N 25°46' W 080°08'0 0.0
2017-Nov-18 11:58N 25°46' W 080°08'0 0.0
2017-Nov-18 11:28N 25°46' W 080°08'0 0.0
2017-Nov-18 10:58N 25°46' W 080°08'0 0.0
2017-Nov-18 10:28N 25°46' W 080°08'0 0.0
2017-Nov-18 09:58N 25°46' W 080°08'0 0.0
2017-Nov-18 09:28N 25°46' W 080°08'0 0.0
2017-Nov-18 08:58N 25°46' W 080°08'0 0.0
2017-Nov-18 08:25N 25°46' W 080°08'0 0.0
2017-Nov-18 07:58N 25°46' W 080°08'0 0.0
2017-Nov-18 07:28N 25°46' W 080°08'0 0.0
2017-Nov-18 06:58N 25°46' W 080°08'0 0.0
2017-Nov-18 06:28N 25°46' W 080°08'0 0.0
2017-Nov-18 05:58N 25°46' W 080°08'0 0.0
2017-Nov-18 05:28N 25°46' W 080°08'0 0.0
2017-Nov-18 04:55N 25°46' W 080°08'0 0.0
2017-Nov-18 04:28N 25°46' W 080°08'0 0.0
2017-Nov-18 03:58N 25°46' W 080°08'0 0.0
2017-Nov-18 03:28N 25°46' W 080°08'0 0.0
2017-Nov-18 02:58N 25°46' W 080°08'0 0.0
2017-Nov-18 02:28N 25°46' W 080°08'0 0.0
2017-Nov-18 01:58N 25°46' W 080°08'0 0.0
2017-Nov-18 01:28N 25°46' W 080°08'0 0.0
2017-Nov-18 00:58N 25°46' W 080°08'0 0.0
2017-Nov-18 00:28N 25°46' W 080°08'0 0.0
2017-Nov-17 23:58N 25°46' W 080°08'0 0.0
2017-Nov-17 23:28N 25°46' W 080°08'0 0.0
2017-Nov-17 22:55N 25°46' W 080°08'0 0.0
2017-Nov-17 22:28N 25°46' W 080°08'0 0.0
2017-Nov-17 21:58N 25°46' W 080°08'0 0.0
2017-Nov-17 21:28N 25°46' W 080°08'0 0.2
2017-Nov-17 21:00N 25°46' W 080°09'4 7.2
2017-Nov-17 20:30N 25°49' W 080°06'714.7
2017-Nov-17 20:00N 25°56' W 080°06'714.1
2017-Nov-17 19:30N 26°03' W 080°05'3 6.5
2017-Nov-17 19:00N 26°06' W 080°07'2 2.8
2017-Nov-17 18:25N 26°08' W 080°07'0 0.0
2017-Nov-17 17:43N 26°08' W 080°07'0 0.0
2017-Nov-17 17:28N 26°08' W 080°07'0 0.0
2017-Nov-17 16:52N 26°08' W 080°07'0 0.0
2017-Nov-17 16:28N 26°08' W 080°07'0 0.0
2017-Nov-17 15:58N 26°08' W 080°07'0 0.0
2017-Nov-17 15:28N 26°08' W 080°07'0 0.0
2017-Nov-17 14:58N 26°08' W 080°07'0 0.0
2017-Nov-17 14:28N 26°08' W 080°07'0 0.0
2017-Nov-17 13:58N 26°08' W 080°07'0 0.0
2017-Nov-17 13:28N 26°08' W 080°07'0 0.0
2017-Nov-17 12:58N 26°08' W 080°07'0 0.0
2017-Nov-17 12:28N 26°08' W 080°07'0 0.0
2017-Nov-17 11:49N 26°08' W 080°07'0 0.0
2017-Nov-17 11:19N 26°08' W 080°07'0 0.0
2017-Nov-17 10:34N 26°08' W 080°07'0 0.0
2017-Nov-17 10:19N 26°08' W 080°07'0 0.0
2017-Nov-17 09:46N 26°08' W 080°07'0 0.0
2017-Nov-17 09:19N 26°08' W 080°07'0 0.0
2017-Nov-17 08:52N 26°08' W 080°07'0 0.0
2017-Nov-17 08:22N 26°08' W 080°07'0 0.0
2017-Nov-17 07:52N 26°08' W 080°07'0 0.0
2017-Nov-17 07:22N 26°08' W 080°07'0 0.0
2017-Nov-17 06:49N 26°08' W 080°07'0 0.0
2017-Nov-17 06:19N 26°08' W 080°07'0 0.0
2017-Nov-17 05:55N 26°08' W 080°07'0 0.0
2017-Nov-17 05:25N 26°08' W 080°07'0 0.0
2017-Nov-17 04:55N 26°08' W 080°07'0 0.0
2017-Nov-17 04:25N 26°08' W 080°07'0 0.0
2017-Nov-17 03:55N 26°08' W 080°07'0 0.0
2017-Nov-17 03:28N 26°08' W 080°07'0 0.0
2017-Nov-17 02:58N 26°08' W 080°07'0 0.0
2017-Nov-17 02:25N 26°08' W 080°07'0 0.0
2017-Nov-17 01:58N 26°08' W 080°07'0 0.0
2017-Nov-17 01:25N 26°08' W 080°07'0 0.0
2017-Nov-17 00:58N 26°08' W 080°07'0 0.0
2017-Nov-17 00:28N 26°08' W 080°07'0 0.0
2017-Nov-16 23:58N 26°08' W 080°07'0 0.0
2017-Nov-16 23:28N 26°08' W 080°07'0 0.0
2017-Nov-16 22:58N 26°08' W 080°07'0 0.0
2017-Nov-16 22:28N 26°08' W 080°07'0 0.0
2017-Nov-16 21:58N 26°08' W 080°07'0 0.0
2017-Nov-16 21:28N 26°08' W 080°07'0 0.0
2017-Nov-16 20:49N 26°08' W 080°07'0 0.0
2017-Nov-16 20:16N 26°08' W 080°07'0 0.0
2017-Nov-16 19:49N 26°08' W 080°07'0 0.0
2017-Nov-16 19:16N 26°08' W 080°07'0 0.0
2017-Nov-16 18:52N 26°08' W 080°07'0 0.0
2017-Nov-16 18:22N 26°08' W 080°07'0 0.0
2017-Nov-16 17:52N 26°08' W 080°07'0 0.0
2017-Nov-16 17:19N 26°08' W 080°07'0 0.0
2017-Nov-16 16:52N 26°08' W 080°07'0 0.0
2017-Nov-16 16:25N 26°08' W 080°07'0 0.0
2017-Nov-16 15:55N 26°08' W 080°07'0 0.0
2017-Nov-16 15:25N 26°08' W 080°07'0 0.0
2017-Nov-16 14:52N 26°08' W 080°07'0 0.0
2017-Nov-16 14:25N 26°08' W 080°07'0 0.0
2017-Nov-16 13:55N 26°08' W 080°07'0 0.0
2017-Nov-16 13:28N 26°08' W 080°07'0 0.0
2017-Nov-16 12:55N 26°08' W 080°07'0 0.0
2017-Nov-16 12:28N 26°08' W 080°07'0 0.0
2017-Nov-16 11:58N 26°08' W 080°07'0 0.0
2017-Nov-16 11:28N 26°08' W 080°07'0 0.0
2017-Nov-16 10:58N 26°08' W 080°07'0 0.0
2017-Nov-16 10:28N 26°08' W 080°07'0 0.0
2017-Nov-16 09:58N 26°08' W 080°07'0 0.0
2017-Nov-16 09:16N 26°08' W 080°07'0 0.0
2017-Nov-16 08:58N 26°08' W 080°07'0 0.0
2017-Nov-16 08:28N 26°08' W 080°07'0 0.0
2017-Nov-16 07:58N 26°08' W 080°07'0 0.0
2017-Nov-16 07:19N 26°08' W 080°07'0 0.0
2017-Nov-16 06:58N 26°08' W 080°07'0 0.0
2017-Nov-16 06:19N 26°08' W 080°07'0 0.0
2017-Nov-16 05:49N 26°08' W 080°07'0 0.0
2017-Nov-16 05:07N 26°08' W 080°07'0 0.0
2017-Nov-16 04:52N 26°08' W 080°07'0 0.0
2017-Nov-16 04:22N 26°08' W 080°07'0 0.0
2017-Nov-16 03:52N 26°08' W 080°07'0 0.0
2017-Nov-16 03:22N 26°08' W 080°07'0 0.0
2017-Nov-16 02:49N 26°08' W 080°07'0 0.0
2017-Nov-16 02:10N 26°08' W 080°07'0 0.0
2017-Nov-16 01:55N 26°08' W 080°07'0 0.0
2017-Nov-16 01:25N 26°08' W 080°07'0 0.0
2017-Nov-16 00:55N 26°08' W 080°07'0 0.0
2017-Nov-16 00:25N 26°08' W 080°07'0 0.0
2017-Nov-15 23:52N 26°08' W 080°07'0 0.0
2017-Nov-15 23:28N 26°08' W 080°07'0 0.0
2017-Nov-15 22:58N 26°08' W 080°07'0 0.0
2017-Nov-15 22:28N 26°08' W 080°07'0 0.0
2017-Nov-15 21:58N 26°08' W 080°07'0 0.0
2017-Nov-15 21:28N 26°08' W 080°07'0 0.0
2017-Nov-15 20:55N 26°08' W 080°07'0 0.0
2017-Nov-15 20:28N 26°08' W 080°07'0 0.0
2017-Nov-15 19:58N 26°08' W 080°07'0 0.0
2017-Nov-15 19:25N 26°08' W 080°07'0 0.0
2017-Nov-15 18:58N 26°08' W 080°07'0 0.0
2017-Nov-15 18:28N 26°08' W 080°07'0 0.0
2017-Nov-15 17:28N 26°08' W 080°07'0 0.0
2017-Nov-15 16:58N 26°08' W 080°07'0 0.0
2017-Nov-15 16:19N 26°08' W 080°07'0 0.0
2017-Nov-15 15:49N 26°08' W 080°07'0 0.0
2017-Nov-15 15:04N 26°08' W 080°07'0 0.0
2017-Nov-15 14:49N 26°08' W 080°07'0 0.0
2017-Nov-15 14:22N 26°08' W 080°07'0 0.0
2017-Nov-15 13:49N 26°08' W 080°07'0 0.0
2017-Nov-15 13:22N 26°08' W 080°07'0 0.0
2017-Nov-15 12:52N 26°08' W 080°07'0 0.0
2017-Nov-15 12:19N 26°08' W 080°07'0 0.0
2017-Nov-15 11:55N 26°08' W 080°07'0 0.0
2017-Nov-15 11:25N 26°08' W 080°07'0 0.0
2017-Nov-15 10:55N 26°08' W 080°07'0 0.0
2017-Nov-15 10:25N 26°08' W 080°07'0 0.0
2017-Nov-15 09:52N 26°08' W 080°07'0 0.0
2017-Nov-15 09:25N 26°08' W 080°07'0 0.0
2017-Nov-15 08:58N 26°08' W 080°07'0 0.0
2017-Nov-15 08:28N 26°08' W 080°07'0 0.0
2017-Nov-15 07:58N 26°08' W 080°07'0 0.0
2017-Nov-15 07:28N 26°08' W 080°07'0 0.0
2017-Nov-15 06:55N 26°08' W 080°07'0 0.0
2017-Nov-15 06:25N 26°08' W 080°07'0 0.0
2017-Nov-15 05:58N 26°08' W 080°07'0 0.0
2017-Nov-15 05:28N 26°08' W 080°07'0 0.0
2017-Nov-15 04:58N 26°08' W 080°07'0 0.0
2017-Nov-15 04:28N 26°08' W 080°07'0 0.0
2017-Nov-15 03:58N 26°08' W 080°07'0 0.0
2017-Nov-15 03:28N 26°08' W 080°07'0 0.0
2017-Nov-15 02:46N 26°08' W 080°07'0 0.0
2017-Nov-15 02:28N 26°08' W 080°07'0 0.0
2017-Nov-15 01:49N 26°08' W 080°07'0 0.0
2017-Nov-15 01:19N 26°08' W 080°07'0 0.0
2017-Nov-15 00:49N 26°08' W 080°07'0 0.0
2017-Nov-15 00:22N 26°08' W 080°07'0 0.0
2017-Nov-14 23:52N 26°08' W 080°07'0 0.0
2017-Nov-14 23:22N 26°08' W 080°07'0 0.0
2017-Nov-14 22:52N 26°08' W 080°07'0 0.0
2017-Nov-14 22:19N 26°08' W 080°07'0 0.0
2017-Nov-14 21:52N 26°08' W 080°07'0 0.0
2017-Nov-14 21:25N 26°08' W 080°07'0 0.0
2017-Nov-14 20:55N 26°08' W 080°07'0 0.0
2017-Nov-14 20:25N 26°08' W 080°07'0 0.0
2017-Nov-14 19:55N 26°08' W 080°07'0 0.0
2017-Nov-14 19:25N 26°08' W 080°07'0 0.0
2017-Nov-14 18:58N 26°08' W 080°07'0 0.0
2017-Nov-14 18:28N 26°08' W 080°07'0 0.0
2017-Nov-14 17:58N 26°08' W 080°07'0 0.0
2017-Nov-14 17:25N 26°08' W 080°07'0 0.0
2017-Nov-14 16:58N 26°08' W 080°07'0 0.0
2017-Nov-14 16:28N 26°08' W 080°07'0 0.0
2017-Nov-14 15:58N 26°08' W 080°07'0 0.0
2017-Nov-14 15:28N 26°08' W 080°07'0 0.0
2017-Nov-14 14:58N 26°08' W 080°07'0 0.0
2017-Nov-14 14:28N 26°08' W 080°07'0 0.0
2017-Nov-14 13:58N 26°08' W 080°07'0 0.0
2017-Nov-14 13:28N 26°08' W 080°07'0 0.0
2017-Nov-14 12:58N 26°08' W 080°07'0 0.0
2017-Nov-14 12:28N 26°08' W 080°07'0 0.0
2017-Nov-14 11:49N 26°08' W 080°07'0 0.0
2017-Nov-14 11:19N 26°08' W 080°07'0 0.0
2017-Nov-14 10:49N 26°08' W 080°07'0 0.0
2017-Nov-14 10:22N 26°08' W 080°07'0 0.0
2017-Nov-14 09:52N 26°08' W 080°07'0 0.0
2017-Nov-14 09:22N 26°08' W 080°07'0 0.0
2017-Nov-14 08:52N 26°08' W 080°07'0 0.0
2017-Nov-14 08:22N 26°08' W 080°07'0 0.0
2017-Nov-14 07:52N 26°08' W 080°07'0 0.0
2017-Nov-14 07:25N 26°08' W 080°07'0 0.0
2017-Nov-14 06:55N 26°08' W 080°07'0 0.0
2017-Nov-14 06:25N 26°08' W 080°07'0 0.0
2017-Nov-14 05:55N 26°08' W 080°07'0 0.0
2017-Nov-14 05:25N 26°08' W 080°07'0 0.0
2017-Nov-14 04:55N 26°08' W 080°07'0 0.0
2017-Nov-14 04:28N 26°08' W 080°07'0 0.0
2017-Nov-14 03:55N 26°08' W 080°07'0 0.0
2017-Nov-14 03:25N 26°08' W 080°07'0 0.0
2017-Nov-14 02:55N 26°08' W 080°07'0 0.0
2017-Nov-14 02:28N 26°08' W 080°07'0 0.0
2017-Nov-14 01:58N 26°08' W 080°07'0 0.0
2017-Nov-14 01:28N 26°08' W 080°07'0 0.0
2017-Nov-14 00:55N 26°08' W 080°07'0 0.0
2017-Nov-14 00:28N 26°08' W 080°07'0 0.0
2017-Nov-13 23:58N 26°08' W 080°07'0 0.0
2017-Nov-13 23:28N 26°08' W 080°07'0 0.0
2017-Nov-13 22:58N 26°08' W 080°07'0 0.0
2017-Nov-13 22:19N 26°08' W 080°07'0 0.0
2017-Nov-13 21:49N 26°08' W 080°07'0 0.0
2017-Nov-13 01:55N 26°08' W 080°07'0 0.0
2017-Nov-13 01:25N 26°08' W 080°07'0 0.0
2017-Nov-13 00:55N 26°08' W 080°07'0 0.0
2017-Nov-13 00:25N 26°08' W 080°07'0 0.0
2017-Nov-12 23:58N 26°08' W 080°07'0 0.0
2017-Nov-12 23:28N 26°08' W 080°07'0 0.0
2017-Nov-12 22:58N 26°08' W 080°07'0 0.0
2017-Nov-12 22:25N 26°08' W 080°07'0 0.0
2017-Nov-12 21:58N 26°08' W 080°07'0 0.0
2017-Nov-12 21:25N 26°08' W 080°07'0 0.0
2017-Nov-12 20:58N 26°08' W 080°07'0 0.0
2017-Nov-12 20:28N 26°08' W 080°07'0 0.0
2017-Nov-12 19:58N 26°08' W 080°07'0 0.0
2017-Nov-12 19:28N 26°08' W 080°07'0 0.0
2017-Nov-12 18:58N 26°08' W 080°07'0 0.0
2017-Nov-12 18:19N 26°08' W 080°07'0 0.0
2017-Nov-12 17:58N 26°08' W 080°07'0 0.0
2017-Nov-12 17:28N 26°08' W 080°07'0 0.0
2017-Nov-12 16:49N 26°08' W 080°07'0 0.0
2017-Nov-12 16:19N 26°08' W 080°07'0 0.0
2017-Nov-12 15:52N 26°08' W 080°07'0 0.0
2017-Nov-12 15:22N 26°08' W 080°07'0 0.0
2017-Nov-12 14:49N 26°08' W 080°07'0 0.8
2017-Nov-12 14:30N 26°08' W 080°07'1 2.8
2017-Nov-12 14:00N 26°06' W 080°07'5 9.8
2017-Nov-12 13:30N 26°02' W 080°06'611.9
2017-Nov-12 13:01N 25°56' W 080°06'611.8
2017-Nov-12 12:30N 25°50' W 080°06'5 9.1
2017-Nov-12 12:01N 25°46' W 080°08'1 1.4
2017-Nov-12 11:28N 25°45' W 080°08'0 0.0
2017-Nov-12 10:55N 25°45' W 080°08'0 0.0
2017-Nov-12 10:28N 25°45' W 080°08'0 0.0
2017-Nov-12 09:58N 25°45' W 080°08'0 0.0
2017-Nov-12 09:28N 25°45' W 080°08'0 0.0
2017-Nov-12 08:58N 25°45' W 080°08'0 0.0
2017-Nov-12 08:28N 25°45' W 080°08'0 0.0
2017-Nov-12 07:58N 25°45' W 080°08'0 0.0
2017-Nov-12 07:28N 25°45' W 080°08'0 0.0
2017-Nov-12 06:55N 25°45' W 080°08'0 0.0
2017-Nov-12 06:28N 25°45' W 080°08'0 0.0
2017-Nov-12 05:49N 25°45' W 080°08'0 0.0
2017-Nov-12 05:28N 25°45' W 080°08'0 0.0
2017-Nov-12 04:58N 25°45' W 080°08'0 0.0
2017-Nov-12 04:28N 25°45' W 080°08'0 0.0
2017-Nov-12 03:55N 25°45' W 080°08'0 0.0
2017-Nov-12 03:28N 25°45' W 080°08'0 0.0
2017-Nov-12 02:55N 25°45' W 080°08'0 0.0
2017-Nov-12 02:25N 25°45' W 080°08'0 0.0
2017-Nov-12 01:58N 25°45' W 080°08'0 0.0
2017-Nov-12 01:28N 25°45' W 080°08'0 0.0
2017-Nov-12 00:58N 25°45' W 080°08'0 0.0
2017-Nov-12 00:28N 25°45' W 080°08'0 0.0
2017-Nov-11 23:55N 25°45' W 080°08'0 0.0
2017-Nov-11 23:28N 25°45' W 080°08'0 0.0
2017-Nov-11 22:58N 25°45' W 080°08'0 0.0
2017-Nov-10 17:13N 25°45' W 080°08'0 0.0
2017-Nov-10 16:58N 25°45' W 080°08'0 0.0
2017-Nov-10 16:28N 25°45' W 080°08'0 0.0
2017-Nov-10 15:58N 25°45' W 080°08'0 0.0
2017-Nov-10 15:28N 25°45' W 080°08'0 0.0
2017-Nov-10 14:58N 25°45' W 080°08'0 0.0
2017-Nov-10 14:28N 25°45' W 080°08'0 0.0
2017-Nov-10 13:58N 25°45' W 080°08'0 0.0
2017-Nov-10 13:28N 25°45' W 080°08'0 0.0
2017-Nov-10 12:58N 25°45' W 080°08'0 0.0
2017-Nov-10 12:28N 25°45' W 080°08'0 0.0
2017-Nov-10 11:58N 25°45' W 080°08'0 0.0
2017-Nov-10 11:28N 25°45' W 080°08'0 0.0
2017-Nov-10 10:58N 25°45' W 080°08'0 0.0
2017-Nov-10 10:28N 25°45' W 080°08'0 0.0
2017-Nov-10 09:58N 25°45' W 080°08'0 0.0
2017-Nov-10 09:28N 25°45' W 080°08'0 0.0
2017-Nov-10 08:58N 25°45' W 080°08'0 0.0
2017-Nov-10 08:28N 25°45' W 080°08'0 0.0
2017-Nov-10 07:58N 25°45' W 080°08'0 0.0
2017-Nov-10 07:28N 25°45' W 080°08'0 0.0
2017-Nov-10 06:58N 25°45' W 080°08'0 0.0
2017-Nov-10 06:28N 25°45' W 080°08'0 0.0
2017-Nov-10 05:58N 25°45' W 080°08'0 0.0
2017-Nov-10 05:22N 25°45' W 080°08'0 0.0
2017-Nov-10 04:58N 25°45' W 080°08'0 0.0
2017-Nov-10 04:28N 25°45' W 080°08'0 0.0
2017-Nov-10 03:58N 25°45' W 080°08'0 0.0
2017-Nov-10 03:25N 25°45' W 080°08'0 0.0
2017-Nov-10 02:52N 25°45' W 080°08'0 0.0
2017-Nov-10 02:28N 25°45' W 080°08'0 0.0
2017-Nov-10 01:55N 25°45' W 080°08'0 0.0
2017-Nov-10 01:28N 25°45' W 080°08'0 0.0
2017-Nov-10 00:58N 25°45' W 080°08'0 0.0
2017-Nov-10 00:28N 25°45' W 080°08'0 0.0
2017-Nov-09 23:58N 25°45' W 080°08'0 0.0
2017-Nov-09 23:28N 25°45' W 080°08'0 0.0
2017-Nov-09 22:55N 25°45' W 080°08'0 0.0
2017-Nov-09 22:28N 25°45' W 080°08'0 0.0
2017-Nov-09 21:58N 25°45' W 080°08'0 0.0
2017-Nov-09 21:28N 25°45' W 080°08'0 0.0
2017-Nov-09 20:58N 25°45' W 080°08'0 0.0
2017-Nov-09 20:28N 25°45' W 080°08'0 1.0
2017-Nov-09 20:01N 25°46' W 080°09'  

Dump ship's entire track history